createdAt,value
2023-01-15T00:01:39.628Z,100363.13
2023-01-15T00:04:07.846Z,100363.63
2023-01-15T00:06:40.037Z,100367.75
2023-01-15T00:09:09.235Z,100367.22
2023-01-15T00:11:35.882Z,100368.22
2023-01-15T00:14:02.609Z,100367.91
2023-01-15T00:16:30.429Z,100369.34
2023-01-15T00:18:59.369Z,100368.50
2023-01-15T00:21:27.770Z,100375.91
2023-01-15T00:24:13.566Z,100371.91
2023-01-15T00:26:59.690Z,100373.72
2023-01-15T00:29:27.030Z,100369.88
2023-01-15T00:32:05.959Z,100375.50
2023-01-15T00:34:33.656Z,100361.91
2023-01-15T00:37:00.424Z,100373.50
2023-01-15T00:39:27.277Z,100360.31
2023-01-15T00:41:55.086Z,100362.28
2023-01-15T00:44:22.693Z,100363.41
2023-01-15T00:46:49.431Z,100353.50
2023-01-15T00:49:16.221Z,100368.00
2023-01-15T00:51:43.015Z,100364.69
2023-01-15T00:54:09.759Z,100365.81
2023-01-15T00:56:36.874Z,100366.13
2023-01-15T00:59:05.541Z,100361.31
2023-01-15T01:01:32.852Z,100360.88
2023-01-15T01:03:59.760Z,100356.88
2023-01-15T01:06:26.816Z,100358.06
2023-01-15T01:08:53.651Z,100355.28
2023-01-15T01:11:25.058Z,100349.19
2023-01-15T01:13:51.795Z,100335.72
2023-01-15T01:16:32.125Z,100355.59
2023-01-15T01:19:00.704Z,100356.88
2023-01-15T01:21:27.823Z,100348.38
2023-01-15T01:23:55.144Z,100353.00
2023-01-15T01:26:21.827Z,100353.69
2023-01-15T01:28:53.254Z,100352.41
2023-01-15T01:31:20.540Z,100346.78
2023-01-15T01:33:52.393Z,100353.00
2023-01-15T01:36:20.124Z,100349.69
2023-01-15T01:38:49.959Z,100345.44
2023-01-15T01:41:19.848Z,100350.63
2023-01-15T01:43:58.361Z,100352.41
2023-01-15T01:46:26.104Z,100356.31
2023-01-15T01:48:57.629Z,100330.91
2023-01-15T01:51:29.080Z,100351.50
2023-01-15T01:53:57.865Z,100349.16
2023-01-15T01:56:24.876Z,100348.00
2023-01-15T01:58:55.204Z,100353.91
2023-01-15T02:01:28.976Z,100349.31
2023-01-15T02:03:56.303Z,100352.63
2023-01-15T02:06:24.421Z,100353.78
2023-01-15T02:08:51.191Z,100342.56
2023-01-15T02:11:21.690Z,100356.41
2023-01-15T02:14:31.426Z,100348.88
2023-01-15T02:17:36.086Z,100336.81
2023-01-15T02:20:16.556Z,100350.44
2023-01-15T02:22:52.233Z,100292.13
2023-01-15T02:25:43.539Z,100340.53
2023-01-15T02:28:22.970Z,100345.13
2023-01-15T02:30:57.283Z,100296.47
2023-01-15T02:33:35.310Z,100339.09
2023-01-15T02:36:02.352Z,100338.66
2023-01-15T02:38:32.493Z,100335.50
2023-01-15T02:41:02.505Z,100349.63
2023-01-15T02:43:35.548Z,100345.47
2023-01-15T02:46:05.830Z,100344.13
2023-01-15T02:48:37.114Z,100344.31
2023-01-15T02:51:10.250Z,100344.09
2023-01-15T02:53:41.374Z,100348.72
2023-01-15T02:56:15.007Z,100332.97
2023-01-15T02:58:43.906Z,100342.16
2023-01-15T03:01:18.829Z,100343.88
2023-01-15T03:04:41.700Z,100345.03
2023-01-15T03:07:36.465Z,100338.34
2023-01-15T03:10:04.941Z,100338.66
2023-01-15T03:13:03.514Z,100345.47
2023-01-15T03:15:54.884Z,100338.88
2023-01-15T03:18:22.804Z,100336.16
2023-01-15T03:20:53.236Z,100326.66
2023-01-15T03:23:24.196Z,100332.97
2023-01-15T03:25:51.444Z,100332.09
2023-01-15T03:28:24.948Z,100338.97
2023-01-15T03:30:52.020Z,100334.28
2023-01-15T03:33:19.394Z,100340.59
2023-01-15T03:35:57.744Z,100336.25
2023-01-15T03:38:47.222Z,100338.50
2023-01-15T03:41:19.798Z,100337.28
2023-01-15T03:43:52.346Z,100334.97
2023-01-15T03:46:37.042Z,100339.31
2023-01-15T03:49:42.417Z,100344.81
2023-01-15T03:52:22.436Z,100342.41
2023-01-15T03:54:58.376Z,100343.56
2023-01-15T03:57:38.832Z,100337.44
2023-01-15T04:00:28.470Z,100347.53
2023-01-15T04:02:57.484Z,100342.41
2023-01-15T04:05:26.129Z,100338.88
2023-01-15T04:07:54.717Z,100352.25
2023-01-15T04:10:21.443Z,100345.88
2023-01-15T04:12:48.141Z,100352.94
2023-01-15T04:15:15.190Z,100349.56
2023-01-15T04:17:41.898Z,100349.66
2023-01-15T04:20:09.616Z,100349.66
2023-01-15T04:22:36.264Z,100357.47
2023-01-15T04:25:04.338Z,100349.03
2023-01-15T04:27:31.514Z,100343.69
2023-01-15T04:29:58.240Z,100358.34
2023-01-15T04:32:25.163Z,100344.91
2023-01-15T04:34:51.820Z,100356.09
2023-01-15T04:37:19.127Z,100357.16
2023-01-15T04:39:47.338Z,100354.25
2023-01-15T04:42:33.759Z,100367.31
2023-01-15T04:45:00.530Z,100360.72
2023-01-15T04:47:31.004Z,100362.34
2023-01-15T04:49:57.673Z,100364.63
2023-01-15T04:52:24.519Z,100366.78
2023-01-15T04:54:51.165Z,100377.56
2023-01-15T04:57:17.762Z,100379.06
2023-01-15T04:59:44.462Z,100373.94
2023-01-15T05:02:11.169Z,100379.28
2023-01-15T05:04:38.048Z,100381.78
2023-01-15T05:07:05.604Z,100376.63
2023-01-15T05:09:32.907Z,100369.09
2023-01-15T05:11:59.600Z,100379.28
2023-01-15T05:14:26.343Z,100370.41
2023-01-15T05:16:53.005Z,100383.88
2023-01-15T05:19:19.924Z,100389.31
2023-01-15T05:21:46.720Z,100381.31
2023-01-15T05:24:16.187Z,100382.53
2023-01-15T05:26:43.912Z,100391.47
2023-01-15T05:29:12.143Z,100393.81
2023-01-15T05:31:39.254Z,100394.28
2023-01-15T05:34:05.931Z,100395.53
2023-01-15T05:36:32.955Z,100401.13
2023-01-15T05:39:01.980Z,100398.53
2023-01-15T05:41:48.575Z,100399.38
2023-01-15T05:44:26.545Z,100399.97
2023-01-15T05:46:55.522Z,100396.59
2023-01-15T05:49:24.995Z,100397.44
2023-01-15T05:51:52.676Z,100400.13
2023-01-15T05:54:25.297Z,100397.78
2023-01-15T05:56:52.409Z,100405.31
2023-01-15T05:59:21.447Z,100394.47
2023-01-15T06:01:48.899Z,100377.47
2023-01-15T06:04:17.861Z,100402.59
2023-01-15T06:06:44.627Z,100384.97
2023-01-15T06:09:11.483Z,100406.38
2023-01-15T06:11:38.525Z,100404.00
2023-01-15T06:14:05.437Z,100411.22
2023-01-15T06:16:32.650Z,100403.47
2023-01-15T06:19:04.346Z,100406.78
2023-01-15T06:21:33.713Z,100401.69
2023-01-15T06:24:00.446Z,100402.69
2023-01-15T06:26:28.035Z,100394.25
2023-01-15T06:28:54.732Z,100385.88
2023-01-15T06:31:24.302Z,100399.06
2023-01-15T06:33:51.255Z,100399.06
2023-01-15T06:36:24.018Z,100394.94
2023-01-15T06:38:50.882Z,100397.59
2023-01-15T06:41:39.051Z,100404.81
2023-01-15T06:44:26.651Z,100400.88
2023-01-15T06:47:13.683Z,100398.47
2023-01-15T06:49:40.419Z,100388.91
2023-01-15T06:52:07.603Z,100400.75
2023-01-15T06:54:34.816Z,100398.91
2023-01-15T06:57:01.818Z,100379.72
2023-01-15T06:59:28.795Z,100403.13
2023-01-15T07:01:55.950Z,100397.06
2023-01-15T07:04:22.860Z,100403.59
2023-01-15T07:06:49.589Z,100400.06
2023-01-15T07:09:16.377Z,100402.69
2023-01-15T07:11:51.960Z,100407.28
2023-01-15T07:14:20.649Z,100410.28
2023-01-15T07:16:47.617Z,100408.72
2023-01-15T07:19:14.536Z,100404.88
2023-01-15T07:21:41.573Z,100386.28
2023-01-15T07:24:09.153Z,100393.06
2023-01-15T07:26:35.830Z,100385.00
2023-01-15T07:29:03.247Z,100409.59
2023-01-15T07:31:30.158Z,100390.28
2023-01-15T07:33:57.535Z,100398.94
2023-01-15T07:36:24.757Z,100407.56
2023-01-15T07:38:51.540Z,100403.66
2023-01-15T07:41:36.729Z,100408.34
2023-01-15T07:44:22.201Z,100357.22
2023-01-15T07:47:06.965Z,100415.66
2023-01-15T07:49:49.028Z,100418.19
2023-01-15T07:52:18.276Z,100428.34
2023-01-15T07:54:46.575Z,100424.59
2023-01-15T07:57:15.381Z,100414.38
2023-01-15T07:59:42.293Z,100419.28
2023-01-15T08:02:09.492Z,100424.72
2023-01-15T08:04:36.391Z,100430.22
2023-01-15T08:07:04.433Z,100411.63
2023-01-15T08:09:31.520Z,100417.06
2023-01-15T08:12:20.414Z,100437.56
2023-01-15T08:15:05.714Z,100432.66
2023-01-15T08:17:40.033Z,100437.97
2023-01-15T08:20:12.083Z,100438.75
2023-01-15T08:22:40.182Z,100442.97
2023-01-15T08:25:09.148Z,100440.53
2023-01-15T08:27:37.289Z,100443.78
2023-01-15T08:30:06.385Z,100439.31
2023-01-15T08:32:33.022Z,100439.19
2023-01-15T08:34:59.878Z,100438.63
2023-01-15T08:37:26.615Z,100437.50
2023-01-15T08:39:53.362Z,100438.88
2023-01-15T08:42:20.968Z,100437.56
2023-01-15T08:44:48.730Z,100438.84
2023-01-15T08:47:16.789Z,100437.41
2023-01-15T08:49:43.537Z,100428.56
2023-01-15T08:52:10.322Z,100428.47
2023-01-15T08:54:36.972Z,100436.09
2023-01-15T08:57:03.804Z,100437.06
2023-01-15T08:59:30.692Z,100439.72
2023-01-15T09:01:57.409Z,100431.72
2023-01-15T09:04:24.139Z,100435.44
2023-01-15T09:06:51.421Z,100433.34
2023-01-15T09:09:18.988Z,100437.47
2023-01-15T09:11:46.321Z,100432.56
2023-01-15T09:14:58.037Z,100434.44
2023-01-15T09:17:02.197Z,100418.06
2023-01-15T09:19:28.990Z,100427.56
2023-01-15T09:21:55.636Z,100419.63
2023-01-15T09:24:22.738Z,100414.19
2023-01-15T09:26:53.222Z,100423.78
2023-01-15T09:29:20.097Z,100423.78
2023-01-15T09:31:47.060Z,100424.63
2023-01-15T09:34:13.776Z,100413.50
2023-01-15T09:36:41.415Z,100411.38
2023-01-15T09:39:08.377Z,100410.38
2023-01-15T09:42:05.488Z,100416.66
2023-01-15T09:44:44.154Z,100408.38
2023-01-15T09:47:26.901Z,100405.81
2023-01-15T09:50:30.012Z,100392.25
2023-01-15T09:53:23.580Z,100385.50
2023-01-15T09:55:50.953Z,100386.84
2023-01-15T09:58:21.062Z,100369.25
2023-01-15T10:00:54.026Z,100370.91
2023-01-15T10:03:37.467Z,100368.44
2023-01-15T10:06:04.069Z,100364.34
2023-01-15T10:08:39.554Z,100359.06
2023-01-15T10:11:17.812Z,100359.06
2023-01-15T10:13:49.284Z,100355.28
2023-01-15T10:16:25.763Z,100344.22
2023-01-15T10:18:54.911Z,100338.44
2023-01-15T10:21:58.526Z,100332.66
2023-01-15T10:24:38.528Z,100329.53
2023-01-15T10:27:18.334Z,100319.28
2023-01-15T10:30:29.252Z,100318.78
2023-01-15T10:33:03.045Z,100315.13
2023-01-15T10:35:58.849Z,100314.97
2023-01-15T10:38:40.449Z,100310.34
2023-01-15T10:41:34.865Z,100304.22
2023-01-15T10:44:19.512Z,100305.88
2023-01-15T10:46:55.109Z,100307.88
2023-01-15T10:49:22.571Z,100296.06
2023-01-15T10:51:57.040Z,100304.84
2023-01-15T10:54:42.406Z,100303.03
2023-01-15T10:57:22.262Z,100299.38
2023-01-15T10:59:57.964Z,100303.19
2023-01-15T11:02:33.733Z,100309.44
2023-01-15T11:05:02.306Z,100306.03
2023-01-15T11:08:16.607Z,100299.84
2023-01-15T11:10:41.161Z,100286.19
2023-01-15T11:13:44.205Z,100285.69
2023-01-15T11:16:45.318Z,100282.53
2023-01-15T11:19:43.789Z,100277.78
2023-01-15T11:22:11.990Z,100274.69
2023-01-15T11:24:53.588Z,100270.34
2023-01-15T11:27:25.776Z,100271.63
2023-01-15T11:29:58.030Z,100269.84
2023-01-15T11:32:32.639Z,100265.88
2023-01-15T11:35:14.694Z,100260.75
2023-01-15T11:37:41.383Z,100260.53
2023-01-15T11:40:19.668Z,100254.16
2023-01-15T11:43:06.569Z,100247.66
2023-01-15T11:45:51.961Z,100243.69
2023-01-15T11:48:41.889Z,100245.25
2023-01-15T11:51:10.442Z,100254.09
2023-01-15T11:54:06.014Z,100253.56
2023-01-15T11:56:34.704Z,100255.03
2023-01-15T11:59:10.986Z,100248.06
2023-01-15T12:01:46.078Z,100249.22
2023-01-15T12:04:30.745Z,100244.72
2023-01-15T12:06:58.165Z,100247.69
2023-01-15T12:09:30.969Z,100247.31
2023-01-15T12:12:21.855Z,100241.41
2023-01-15T12:15:18.986Z,100245.31
2023-01-15T12:18:10.222Z,100238.94
2023-01-15T12:21:25.221Z,100237.59
2023-01-15T12:24:10.271Z,100227.47
2023-01-15T12:27:17.604Z,100226.91
2023-01-15T12:29:50.165Z,100219.28
2023-01-15T12:32:24.466Z,100208.00
2023-01-15T12:35:23.195Z,100225.88
2023-01-15T12:37:58.315Z,100220.91
2023-01-15T12:40:45.568Z,100217.91
2023-01-15T12:43:38.382Z,100206.47
2023-01-15T12:46:11.497Z,100188.44
2023-01-15T12:48:54.680Z,100208.59
2023-01-15T12:51:29.755Z,100201.31
2023-01-15T12:54:04.487Z,100205.31
2023-01-15T12:57:02.943Z,100204.13
2023-01-15T12:59:36.287Z,100205.72
2023-01-15T13:02:19.838Z,100198.59
2023-01-15T13:04:50.447Z,100206.44
2023-01-15T13:07:37.655Z,100204.41
2023-01-15T13:10:07.827Z,100196.09
2023-01-15T13:12:34.844Z,100199.94
2023-01-15T13:15:02.782Z,100177.31
2023-01-15T13:17:38.266Z,100195.72
2023-01-15T13:20:10.827Z,100181.28
2023-01-15T13:22:58.012Z,100186.66
2023-01-15T13:25:40.069Z,100181.78
2023-01-15T13:28:21.588Z,100190.41
2023-01-15T13:31:06.222Z,100187.94
2023-01-15T13:33:38.823Z,100185.06
2023-01-15T13:36:15.540Z,100189.09
2023-01-15T13:38:47.085Z,100188.63
2023-01-15T13:41:40.636Z,100185.66
2023-01-15T13:44:17.121Z,100182.19
2023-01-15T13:46:43.995Z,100182.66
2023-01-15T13:49:21.941Z,100168.13
2023-01-15T13:51:50.320Z,100177.75
2023-01-15T13:54:21.013Z,100173.78
2023-01-15T13:56:47.827Z,100173.94
2023-01-15T13:59:53.140Z,100176.75
2023-01-15T14:02:32.109Z,100170.16
2023-01-15T14:04:59.137Z,100168.84
2023-01-15T14:07:37.382Z,100168.50
2023-01-15T14:10:24.976Z,100166.53
2023-01-15T14:12:54.569Z,100170.19
2023-01-15T14:15:30.751Z,100173.97
2023-01-15T14:18:22.754Z,100176.19
2023-01-15T14:21:31.669Z,100163.25
2023-01-15T14:24:13.251Z,100167.09
2023-01-15T14:26:42.922Z,100166.56
2023-01-15T14:29:27.523Z,100164.22
2023-01-15T14:32:22.905Z,100158.84
2023-01-15T14:34:58.369Z,100153.94
2023-01-15T14:37:33.447Z,100164.22
2023-01-15T14:40:05.126Z,100160.56
2023-01-15T14:42:58.028Z,100161.88
2023-01-15T14:45:36.473Z,100162.03
2023-01-15T14:48:06.322Z,100154.41
2023-01-15T14:50:33.757Z,100163.00
2023-01-15T14:53:32.822Z,100161.63
2023-01-15T14:56:03.191Z,100149.22
2023-01-15T14:58:48.879Z,100162.19
2023-01-15T15:02:11.001Z,100153.19
2023-01-15T15:04:44.853Z,100154.31
2023-01-15T15:07:19.069Z,100157.06
2023-01-15T15:09:58.075Z,100157.31
2023-01-15T15:12:35.505Z,100157.28
2023-01-15T15:15:17.655Z,100153.88
2023-01-15T15:18:07.808Z,100149.31
2023-01-15T15:20:59.297Z,100150.41
2023-01-15T15:23:58.208Z,100143.50
2023-01-15T15:26:33.694Z,100140.06
2023-01-15T15:29:09.484Z,100142.03
2023-01-15T15:31:39.632Z,100136.63
2023-01-15T15:34:14.890Z,100143.59
2023-01-15T15:36:41.891Z,100140.63
2023-01-15T15:39:29.440Z,100139.78
2023-01-15T15:42:18.007Z,100136.34
2023-01-15T15:45:14.617Z,100139.47
2023-01-15T15:48:01.307Z,100139.00
2023-01-15T15:50:32.547Z,100136.19
2023-01-15T15:53:04.331Z,100134.81
2023-01-15T15:55:44.006Z,100141.91
2023-01-15T15:58:33.296Z,100141.44
2023-01-15T16:01:00.875Z,100141.44
2023-01-15T16:03:32.521Z,100136.28
2023-01-15T16:06:05.301Z,100149.66
2023-01-15T16:08:34.102Z,100152.63
2023-01-15T16:11:04.906Z,100154.81
2023-01-15T16:13:35.833Z,100157.28
2023-01-15T16:16:05.677Z,100165.56
2023-01-15T16:18:44.388Z,100160.28
2023-01-15T16:21:16.987Z,100159.94
2023-01-15T16:23:46.513Z,100161.75
2023-01-15T16:26:20.012Z,100153.19
2023-01-15T16:28:53.358Z,100156.63
2023-01-15T16:31:21.952Z,100143.59
2023-01-15T16:33:55.533Z,100139.28
2023-01-15T16:36:23.375Z,100155.25
2023-01-15T16:38:51.960Z,100157.19
2023-01-15T16:41:38.326Z,100152.09
2023-01-15T16:44:07.390Z,100143.84
2023-01-15T16:46:39.222Z,100153.78
2023-01-15T16:49:22.302Z,100150.53
2023-01-15T16:51:53.762Z,100153.84
2023-01-15T16:54:29.331Z,100151.03
2023-01-15T16:57:00.190Z,100151.53
2023-01-15T16:59:26.841Z,100147.56
2023-01-15T17:02:02.632Z,100151.19
2023-01-15T17:04:34.612Z,100150.03
2023-01-15T17:07:07.546Z,100155.81
2023-01-15T17:09:37.058Z,100148.41
2023-01-15T17:12:26.561Z,100150.03
2023-01-15T17:14:54.153Z,100151.38
2023-01-15T17:17:23.561Z,100150.69
2023-01-15T17:19:52.091Z,100156.97
2023-01-15T17:22:24.433Z,100152.34
2023-01-15T17:24:56.530Z,100146.25
2023-01-15T17:27:24.610Z,100162.59
2023-01-15T17:29:51.641Z,100158.13
2023-01-15T17:32:25.765Z,100149.66
2023-01-15T17:34:52.406Z,100139.44
2023-01-15T17:37:19.133Z,100141.25
2023-01-15T17:39:45.862Z,100141.44
2023-01-15T17:42:18.247Z,100138.44
2023-01-15T17:44:46.273Z,100135.63
2023-01-15T17:47:13.220Z,100107.59
2023-01-15T17:49:40.036Z,100128.00
2023-01-15T17:52:08.639Z,100128.44
2023-01-15T17:54:53.614Z,100131.94
2023-01-15T17:57:39.225Z,100128.50
2023-01-15T18:00:25.301Z,100133.63
2023-01-15T18:03:10.986Z,100138.88
2023-01-15T18:05:38.581Z,100139.22
2023-01-15T18:08:08.276Z,100138.34
2023-01-15T18:10:35.171Z,100135.91
2023-01-15T18:13:03.688Z,100139.53
2023-01-15T18:15:30.590Z,100128.84
2023-01-15T18:17:57.405Z,100133.25
2023-01-15T18:20:24.172Z,100136.25
2023-01-15T18:22:50.862Z,100143.84
2023-01-15T18:25:17.624Z,100140.38
2023-01-15T18:27:44.342Z,100136.22
2023-01-15T18:30:12.974Z,100142.72
2023-01-15T18:32:40.224Z,100138.88
2023-01-15T18:35:07.338Z,100135.41
2023-01-15T18:37:34.742Z,100138.25
2023-01-15T18:40:01.435Z,100142.72
2023-01-15T18:42:46.468Z,100145.91
2023-01-15T18:45:31.995Z,100148.53
2023-01-15T18:48:01.357Z,100145.59
2023-01-15T18:50:29.017Z,100142.41
2023-01-15T18:52:55.951Z,100140.59
2023-01-15T18:55:26.829Z,100138.75
2023-01-15T18:57:54.650Z,100138.56
2023-01-15T19:00:23.156Z,100122.56
2023-01-15T19:02:51.051Z,100127.38
2023-01-15T19:05:18.779Z,100134.34
2023-01-15T19:07:46.109Z,100130.81
2023-01-15T19:10:16.044Z,100124.38
2023-01-15T19:12:44.677Z,100128.91
2023-01-15T19:15:33.605Z,100131.25
2023-01-15T19:18:19.082Z,100130.78
2023-01-15T19:20:45.937Z,100122.13
2023-01-15T19:23:12.638Z,100125.56
2023-01-15T19:25:45.460Z,100120.09
2023-01-15T19:28:17.995Z,100127.56
2023-01-15T19:31:09.819Z,100123.00
2023-01-15T19:33:36.528Z,100124.28
2023-01-15T19:36:03.879Z,100129.31
2023-01-15T19:38:30.773Z,100130.13
2023-01-15T19:41:17.368Z,100125.47
2023-01-15T19:44:02.532Z,100125.47
2023-01-15T19:46:48.089Z,100120.81
2023-01-15T19:49:39.048Z,100119.19
2023-01-15T19:52:24.448Z,100112.28
2023-01-15T19:54:56.752Z,100105.13
2023-01-15T19:57:23.948Z,100087.06
2023-01-15T19:59:50.666Z,100099.25
2023-01-15T20:02:17.414Z,100096.53
2023-01-15T20:04:48.551Z,100083.59
2023-01-15T20:07:15.414Z,100078.72
2023-01-15T20:09:43.268Z,100088.34
2023-01-15T20:12:30.249Z,100091.09
2023-01-15T20:14:57.072Z,100094.09
2023-01-15T20:17:24.301Z,100106.03
2023-01-15T20:19:50.922Z,100097.38
2023-01-15T20:22:17.693Z,100097.06
2023-01-15T20:24:44.586Z,100093.94
2023-01-15T20:27:13.287Z,100088.00
2023-01-15T20:29:43.177Z,100078.81
2023-01-15T20:32:09.892Z,100078.84
2023-01-15T20:34:38.975Z,100073.44
2023-01-15T20:37:06.905Z,100070.81
2023-01-15T20:39:34.127Z,100006.09
2023-01-15T20:42:19.521Z,100050.22
2023-01-15T20:44:55.422Z,100059.94
2023-01-15T20:47:46.089Z,100057.59
2023-01-15T20:50:17.166Z,100061.75
2023-01-15T20:52:48.978Z,100051.72
2023-01-15T20:55:17.131Z,100059.13
2023-01-15T20:57:45.171Z,100059.47
2023-01-15T21:00:15.871Z,100055.38
2023-01-15T21:02:42.570Z,100055.03
2023-01-15T21:05:09.910Z,100063.06
2023-01-15T21:07:37.778Z,100060.84
2023-01-15T21:10:06.581Z,100054.72
2023-01-15T21:12:33.561Z,100057.66
2023-01-15T21:15:00.261Z,100056.56
2023-01-15T21:17:26.909Z,100054.50
2023-01-15T21:19:53.547Z,100058.81
2023-01-15T21:22:20.336Z,100056.31
2023-01-15T21:24:48.808Z,100047.97
2023-01-15T21:27:17.050Z,100047.59
2023-01-15T21:29:43.674Z,100047.50
2023-01-15T21:32:10.340Z,100046.81
2023-01-15T21:34:36.959Z,100056.94
2023-01-15T21:37:03.641Z,100053.47
2023-01-15T21:39:30.325Z,100047.63
2023-01-15T21:42:15.837Z,100050.41
2023-01-15T21:44:46.024Z,100038.88
2023-01-15T21:47:15.230Z,100040.78
2023-01-15T21:49:43.059Z,100028.72
2023-01-15T21:52:18.561Z,100045.41
2023-01-15T21:54:45.784Z,100035.34
2023-01-15T21:57:13.355Z,100029.59
2023-01-15T21:59:41.235Z,100028.25
2023-01-15T22:02:15.152Z,100012.75
2023-01-15T22:04:43.570Z,100025.22
2023-01-15T22:07:11.477Z,100029.16
2023-01-15T22:09:38.807Z,100019.25
2023-01-15T22:12:06.028Z,100022.66
2023-01-15T22:14:33.272Z,100000.38
2023-01-15T22:17:02.097Z,100000.56
2023-01-15T22:19:31.199Z,100012.84
2023-01-15T22:22:03.757Z,99996.56
2023-01-15T22:24:32.818Z,99984.22
2023-01-15T22:27:00.507Z,99984.16
2023-01-15T22:29:29.939Z,99988.28
2023-01-15T22:31:57.489Z,99990.88
2023-01-15T22:34:26.816Z,99990.28
2023-01-15T22:36:54.315Z,99988.75
2023-01-15T22:39:22.207Z,99987.56
2023-01-15T22:42:07.465Z,99986.03
2023-01-15T22:44:34.402Z,99986.09
2023-01-15T22:47:02.452Z,99979.03
2023-01-15T22:49:29.738Z,99979.88
2023-01-15T22:51:56.592Z,99970.28
2023-01-15T22:54:23.633Z,99963.81
2023-01-15T22:56:50.400Z,99961.78
2023-01-15T22:59:17.223Z,99963.72
2023-01-15T23:01:44.145Z,99942.22
2023-01-15T23:04:14.213Z,99961.91
2023-01-15T23:06:41.282Z,99963.94
2023-01-15T23:09:09.301Z,99960.28
2023-01-15T23:11:36.167Z,99941.31
2023-01-15T23:14:02.816Z,99952.41
2023-01-15T23:16:29.577Z,99951.09
2023-01-15T23:18:56.301Z,99946.13
2023-01-15T23:21:25.343Z,99933.16
2023-01-15T23:23:56.454Z,99936.81
2023-01-15T23:26:24.763Z,99937.69
2023-01-15T23:28:51.823Z,99939.28
2023-01-15T23:31:20.068Z,99934.78
2023-01-15T23:33:47.265Z,99921.84
2023-01-15T23:36:14.473Z,99936.78
2023-01-15T23:38:42.449Z,99925.97
2023-01-15T23:41:41.198Z,99931.84
2023-01-15T23:44:35.300Z,99926.13
2023-01-15T23:47:02.594Z,99925.44
2023-01-15T23:49:29.367Z,99932.84
2023-01-15T23:51:56.084Z,99924.34
2023-01-15T23:54:25.507Z,99922.59
2023-01-15T23:56:52.154Z,99919.06
2023-01-15T23:59:18.968Z,99910.72
